Cuthbert, Texas
Current Conditions -  °F | °C
As of 8:15 AM on Sunday 23 Nov 2014 (Local Time) from KSNK Reporting Station
Clear Clear  
Wind Chill: 38°   Ceiling: Unl
Heat Index: 44°   Visibility: 10mi
Dew Point: 38°   Wind: 12mph
Humidity: 80%   Direction: 200°SSW
Pressure: 29.6"   Gusts: NA
Location:  32.4169°N, 100.857°W
Report Text: KSNK 231415Z AUTO 20010KT 10SM CLR 07/03 A2960 RMK AO2 T00660033
Loading
Personal Weather Stations






























Interactive Weather Map New forecast layout! Learn more

10-Day Weather Forecast

Advertisements
Track Severe Weather on mobile